Time;durP1;ratioP1;P1;durP2;ratioP2;P2;SDS_P1;SDS_P2;PMS_P1;PMS_P2;Temp;Humidity;BMP_temperature;BMP_pressure;BME280_temperature;BME280_humidity;BME280_pressure;Samples;Min_cycle;Max_cycle;Signal;HPM_P1;HPM_P2
2023/12/29 00:00:32;;;;;;;8.77;3.10;;;;;;;18.74;55.51;100434.28;4969769;28;20665;-72
2023/12/29 00:02:57;;;;;;;9.50;3.17;;;;;;;18.74;55.87;100436.31;4962178;28;20216;-74
2023/12/29 00:05:22;;;;;;;8.07;1.93;;;;;;;18.74;55.67;100439.16;4989743;28;20268;-74
2023/12/29 00:07:48;;;;;;;5.50;2.73;;;;;;;18.76;55.41;100443.31;4963733;28;20200;-74
2023/12/29 00:10:13;;;;;;;10.53;2.40;;;;;;;18.81;55.59;100434.41;4993066;28;20275;-74
2023/12/29 00:12:39;;;;;;;8.97;2.40;;;;;;;18.76;55.56;100443.31;4967479;28;20236;-75
2023/12/29 00:15:05;;;;;;;7.30;2.40;;;;;;;18.80;55.72;100446.22;4973535;28;20197;-74
2023/12/29 00:17:32;;;;;;;4.33;3.10;;;;;;;18.77;55.84;100444.16;4971798;28;20202;-75
2023/12/29 00:19:57;;;;;;;9.50;2.77;;;;;;;18.77;55.75;100450.66;4979253;28;20451;-74
2023/12/29 00:22:25;;;;;;;5.80;2.60;;;;;;;18.75;55.87;100458.81;4969961;28;21207;-74
2023/12/29 00:24:50;;;;;;;4.53;2.60;;;;;;;18.76;55.89;100454.75;4967418;28;20240;-74
2023/12/29 00:27:16;;;;;;;5.97;2.60;;;;;;;18.74;56.11;100451.44;4973232;28;20445;-74
2023/12/29 00:29:42;;;;;;;3.90;2.37;;;;;;;18.76;56.54;100445.34;4941851;28;20666;-74
2023/12/29 00:32:07;;;;;;;4.90;2.27;;;;;;;18.74;56.27;100427.72;4922186;28;20477;-74
2023/12/29 00:34:33;;;;;;;5.70;2.50;;;;;;;18.77;56.01;100435.56;4932609;28;20681;-74
2023/12/29 00:36:58;;;;;;;6.30;2.73;;;;;;;18.76;56.21;100434.72;4959128;28;20238;-74
2023/12/29 00:39:28;;;;;;;4.17;2.30;;;;;;;18.75;56.18;100430.22;4937333;28;20221;-74
2023/12/29 00:41:56;;;;;;;4.60;2.40;;;;;;;18.75;56.16;100433.06;4920639;29;20202;-75
2023/12/29 00:44:21;;;;;;;13.40;2.90;;;;;;;18.74;56.34;100430.59;4952910;28;20525;-74
2023/12/29 00:46:47;;;;;;;3.77;2.10;;;;;;;18.75;56.32;100421.63;4932481;28;20468;-75
2023/12/29 00:49:12;;;;;;;4.87;2.30;;;;;;;18.75;56.02;100418.78;4971142;28;20194;-74
2023/12/29 00:51:41;;;;;;;5.13;2.87;;;;;;;18.74;56.23;100413.44;4962281;28;20213;-74
2023/12/29 00:54:07;;;;;;;4.43;2.27;;;;;;;18.74;56.33;100411.41;4970221;28;20316;-74
2023/12/29 00:56:32;;;;;;;4.40;2.43;;;;;;;18.74;56.21;100413.44;4953581;28;20512;-71
2023/12/29 00:58:58;;;;;;;5.30;2.10;;;;;;;18.72;56.55;100421.56;4954236;28;20457;-71
2023/12/29 01:01:23;;;;;;;3.77;1.90;;;;;;;18.72;56.42;100421.56;4953949;28;20221;-71
2023/12/29 01:03:49;;;;;;;4.17;2.00;;;;;;;18.73;56.65;100414.63;4935120;28;20202;-71
2023/12/29 01:06:14;;;;;;;4.53;2.60;;;;;;;18.70;56.52;100424.81;4921323;28;20745;-71
2023/12/29 01:08:40;;;;;;;5.87;2.10;;;;;;;18.71;56.73;100417.88;4952409;28;20217;-71
2023/12/29 01:11:05;;;;;;;5.30;1.93;;;;;;;18.69;56.90;100417.44;4939818;28;20218;-71
2023/12/29 01:13:31;;;;;;;5.07;1.80;;;;;;;18.72;56.21;100419.53;4958539;28;20201;-71
2023/12/29 01:15:57;;;;;;;3.67;2.13;;;;;;;18.67;56.85;100416.97;4953013;28;20626;-71
2023/12/29 01:18:22;;;;;;;7.57;2.10;;;;;;;18.69;56.58;100416.59;4951319;28;20449;-71
2023/12/29 01:20:48;;;;;;;7.00;2.70;;;;;;;18.67;56.67;100411.25;4917984;29;20234;-71
2023/12/29 01:23:13;;;;;;;13.07;2.50;;;;;;;18.70;56.83;100413.38;4950456;29;20210;-73
2023/12/29 01:25:38;;;;;;;4.67;2.40;;;;;;;18.73;56.69;100417.50;4936692;28;20277;-71
2023/12/29 01:28:04;;;;;;;5.13;2.00;;;;;;;18.69;56.83;100406.00;4953666;28;20213;-71
2023/12/29 01:30:30;;;;;;;2.97;1.90;;;;;;;18.68;56.65;100398.63;4952190;28;20364;-71
2023/12/29 01:32:55;;;;;;;4.20;2.20;;;;;;;18.66;57.13;100397.34;4928266;28;20197;-72
2023/12/29 01:35:21;;;;;;;4.27;2.07;;;;;;;18.66;57.42;100406.75;4941919;28;20239;-71
2023/12/29 01:37:46;;;;;;;4.33;1.90;;;;;;;18.68;56.71;100409.22;4972221;28;20223;-71
2023/12/29 01:40:12;;;;;;;7.50;2.10;;;;;;;18.67;57.17;100410.44;4962274;28;20285;-71
2023/12/29 01:42:37;;;;;;;4.90;2.10;;;;;;;18.66;57.06;100406.75;4953600;28;20198;-71
2023/12/29 01:45:03;;;;;;;6.00;2.27;;;;;;;18.68;56.85;100409.22;4953106;28;20202;-71
2023/12/29 01:47:29;;;;;;;3.40;2.37;;;;;;;18.67;57.28;100419.03;4952114;28;20246;-71
2023/12/29 01:49:54;;;;;;;3.23;2.10;;;;;;;18.65;57.20;100422.25;4950316;29;20446;-71
2023/12/29 01:52:20;;;;;;;3.57;2.10;;;;;;;18.63;57.37;100407.53;4950192;29;20222;-71
2023/12/29 01:54:46;;;;;;;4.20;2.07;;;;;;;18.65;57.22;100404.25;4938366;28;20207;-70
2023/12/29 01:57:11;;;;;;;5.93;2.50;;;;;;;18.66;57.17;100401.03;4956410;28;20266;-70
2023/12/29 01:59:38;;;;;;;3.67;1.70;;;;;;;18.65;56.83;100401.41;4956131;28;20998;-71
2023/12/29 02:02:03;;;;;;;5.10;2.33;;;;;;;18.64;57.19;100412.03;4953475;28;20603;-73
2023/12/29 02:04:29;;;;;;;3.77;2.07;;;;;;;18.65;56.80;100413.69;4928308;29;20459;-73
2023/12/29 02:06:55;;;;;;;4.00;1.90;;;;;;;18.63;57.36;100409.53;4930534;28;20982;-71
2023/12/29 02:09:20;;;;;;;6.80;2.00;;;;;;;18.64;57.51;100389.16;4939763;29;20596;-70
2023/12/29 02:11:46;;;;;;;6.73;2.80;;;;;;;18.61;57.46;100377.66;4950147;29;20219;-71
2023/12/29 02:14:12;;;;;;;3.80;2.10;;;;;;;18.61;57.28;100384.19;4918382;29;20238;-70
2023/12/29 02:16:55;;;;;;;5.20;1.67;;;;;;;18.63;57.15;100376.06;4933713;29;20227;-71
2023/12/29 02:19:49;;;;;;;2.80;1.70;;;;;;;18.61;57.50;100389.91;4934355;28;20206;-71
2023/12/29 02:22:15;;;;;;;3.90;1.90;;;;;;;18.63;56.88;100384.66;4980070;28;20973;-71
2023/12/29 02:24:45;;;;;;;4.70;2.13;;;;;;;18.61;57.45;100384.19;4922458;28;20457;-70
2023/12/29 02:27:32;;;;;;;4.50;1.97;;;;;;;18.60;57.62;100373.94;4935670;29;20211;-70
2023/12/29 02:30:15;;;;;;;2.67;1.63;;;;;;;18.60;57.25;100367.41;4951018;29;20549;-70
2023/12/29 02:32:46;;;;;;;3.57;1.97;;;;;;;18.59;57.34;100369.44;4967721;28;20461;-70
2023/12/29 02:35:15;;;;;;;2.93;1.67;;;;;;;18.61;57.47;100369.06;4953161;28;20576;-71
2023/12/29 02:37:40;;;;;;;3.73;1.63;;;;;;;18.60;57.28;100371.09;4974943;28;20440;-70
2023/12/29 02:40:07;;;;;;;4.00;2.03;;;;;;;18.59;57.23;100360.88;4959024;28;20452;-71
2023/12/29 02:42:33;;;;;;;4.40;2.43;;;;;;;18.60;57.19;100345.38;4975009;28;20216;-71
2023/12/29 02:44:58;;;;;;;2.60;2.00;;;;;;;18.58;57.69;100353.50;4959039;28;20448;-71
2023/12/29 02:47:24;;;;;;;3.77;2.00;;;;;;;18.58;57.15;100359.22;4966133;28;20257;-71
2023/12/29 02:49:50;;;;;;;5.10;2.03;;;;;;;18.59;57.30;100358.00;4955877;28;20202;-71
2023/12/29 02:52:15;;;;;;;3.70;1.70;;;;;;;18.60;57.30;100351.06;4955808;28;20216;-70
2023/12/29 02:54:41;;;;;;;3.60;1.97;;;;;;;18.57;57.53;100365.31;4974103;28;20472;-71
2023/12/29 02:57:06;;;;;;;4.80;2.07;;;;;;;18.57;57.61;100362.47;4974141;28;20209;-71
2023/12/29 02:59:32;;;;;;;3.07;1.60;;;;;;;18.57;57.61;100368.97;4958157;28;20210;-71
2023/12/29 03:01:57;;;;;;;4.83;1.93;;;;;;;18.56;57.44;100367.34;4969830;28;20205;-71
2023/12/29 03:04:23;;;;;;;4.23;1.80;;;;;;;18.57;57.33;100368.19;4973672;28;20202;-72
2023/12/29 03:06:48;;;;;;;4.23;1.90;;;;;;;18.55;57.64;100362.84;4957615;28;20206;-71
2023/12/29 03:09:14;;;;;;;2.93;1.83;;;;;;;18.56;57.58;100360.81;4965865;28;20372;-71
2023/12/29 03:11:39;;;;;;;2.57;1.50;;;;;;;18.54;57.66;100361.19;4970425;28;20238;-71
2023/12/29 03:14:05;;;;;;;3.17;2.00;;;;;;;18.54;57.64;100357.47;4987210;28;20190;-71
2023/12/29 03:16:30;;;;;;;2.97;1.63;;;;;;;18.56;57.59;100352.22;4955668;28;20621;-73
2023/12/29 03:18:56;;;;;;;3.57;1.77;;;;;;;18.55;57.64;100341.97;4971619;28;20202;-73
2023/12/29 03:21:21;;;;;;;3.27;1.80;;;;;;;18.52;57.66;100343.56;4955388;28;20209;-74
2023/12/29 03:23:47;;;;;;;2.67;1.50;;;;;;;18.54;57.33;100361.19;4967475;28;20697;-73
2023/12/29 03:26:12;;;;;;;3.77;2.13;;;;;;;18.54;57.41;100355.47;4973941;28;20208;-74
2023/12/29 03:28:38;;;;;;;2.60;1.50;;;;;;;18.53;57.53;100350.97;4970702;28;20249;-73
2023/12/29 03:31:03;;;;;;;3.80;1.83;;;;;;;18.54;57.85;100346.88;4955972;28;20214;-72
2023/12/29 03:33:29;;;;;;;2.83;1.73;;;;;;;18.52;58.00;100354.19;4962357;28;20218;-75
2023/12/29 03:35:55;;;;;;;2.77;1.70;;;;;;;18.54;57.46;100357.47;4959871;28;20241;-73
2023/12/29 03:38:20;;;;;;;4.83;2.07;;;;;;;18.52;57.57;100349.28;4954325;28;20964;-74
2023/12/29 03:40:46;;;;;;;2.60;1.40;;;;;;;18.52;57.39;100355.00;4954111;28;20195;-73
2023/12/29 03:43:11;;;;;;;4.30;1.70;;;;;;;18.50;57.86;100346.00;4954445;28;20206;-73
2023/12/29 03:45:36;;;;;;;3.20;1.77;;;;;;;18.51;57.46;100350.50;4960558;28;20623;-74
2023/12/29 03:48:02;;;;;;;3.10;1.87;;;;;;;18.51;57.77;100349.69;4989267;28;20224;-74
2023/12/29 03:50:27;;;;;;;3.40;1.57;;;;;;;18.51;57.51;100333.34;4989985;28;20300;-73
2023/12/29 03:52:53;;;;;;;3.50;1.90;;;;;;;18.49;57.86;100330.03;4971449;28;20214;-73
2023/12/29 03:55:18;;;;;;;3.47;1.57;;;;;;;18.50;57.60;100325.97;4983130;28;20202;-74
2023/12/29 03:57:44;;;;;;;2.50;1.70;;;;;;;18.51;57.79;100324.75;4956852;28;20190;-74
2023/12/29 04:00:13;;;;;;;11.90;2.47;;;;;;;18.49;57.59;100327.19;4943082;28;20210;-73
2023/12/29 04:02:39;;;;;;;4.03;1.73;;;;;;;18.50;57.47;100323.13;4977078;28;20580;-73
2023/12/29 04:05:06;;;;;;;2.20;1.50;;;;;;;18.50;57.77;100320.25;4968970;28;20457;-73
2023/12/29 04:07:31;;;;;;;2.77;1.53;;;;;;;18.53;57.75;100327.25;4972431;28;20198;-74
2023/12/29 04:09:57;;;;;;;3.17;1.63;;;;;;;18.50;57.95;100328.84;4973193;28;20787;-74
2023/12/29 04:12:22;;;;;;;3.57;1.60;;;;;;;18.54;57.74;100326.03;4941754;28;20210;-73
2023/12/29 04:14:47;;;;;;;2.87;1.73;;;;;;;18.52;57.88;100319.88;4954103;28;20217;-74
2023/12/29 04:17:14;;;;;;;3.33;1.63;;;;;;;18.49;57.71;100301.47;4981301;28;20220;-73
2023/12/29 04:19:42;;;;;;;3.13;2.00;;;;;;;18.49;57.99;100323.50;4970731;28;20209;-74
2023/12/29 04:22:08;;;;;;;3.23;1.80;;;;;;;18.50;57.74;100328.84;4985938;28;20449;-73
2023/12/29 04:24:34;;;;;;;2.80;1.63;;;;;;;18.49;57.93;100335.75;4986136;28;20446;-74
2023/12/29 04:26:59;;;;;;;2.87;1.77;;;;;;;18.50;57.59;100331.69;4972975;28;20205;-71
2023/12/29 04:29:24;;;;;;;3.17;1.87;;;;;;;18.49;57.83;100338.63;4973151;28;20205;-70
2023/12/29 04:31:50;;;;;;;2.83;1.73;;;;;;;18.47;57.99;100328.78;4972336;28;21081;-71
2023/12/29 04:34:15;;;;;;;2.87;1.80;;;;;;;18.48;57.51;100325.53;4972976;28;20206;-70
2023/12/29 04:36:41;;;;;;;3.90;1.90;;;;;;;18.50;57.72;100328.84;4989223;28;20288;-71
2023/12/29 04:39:08;;;;;;;3.73;1.77;;;;;;;18.49;57.18;100323.50;4956359;28;20202;-70
2023/12/29 04:41:34;;;;;;;2.77;1.80;;;;;;;18.49;57.93;100326.34;4968715;28;20198;-71
2023/12/29 04:44:00;;;;;;;3.20;1.73;;;;;;;18.49;57.60;100337.78;4959427;28;20467;-70
2023/12/29 04:46:25;;;;;;;2.57;1.50;;;;;;;18.51;57.55;100346.81;4972005;28;20198;-71
2023/12/29 04:48:51;;;;;;;3.70;2.00;;;;;;;18.50;57.60;100340.28;4970875;28;20198;-70
2023/12/29 04:51:16;;;;;;;3.57;1.80;;;;;;;18.51;57.31;100338.25;4983757;28;20257;-71
2023/12/29 04:53:42;;;;;;;2.47;1.40;;;;;;;18.49;57.66;100350.06;4969074;28;20210;-70
2023/12/29 04:56:07;;;;;;;2.27;1.53;;;;;;;18.48;58.07;100351.28;4953011;28;20217;-70
2023/12/29 04:58:33;;;;;;;2.40;1.50;;;;;;;18.48;58.16;100359.00;4955021;28;20205;-70
2023/12/29 05:00:59;;;;;;;2.20;1.50;;;;;;;18.51;57.80;100356.22;4967759;28;20257;-71
2023/12/29 05:03:24;;;;;;;2.97;1.80;;;;;;;18.50;57.85;100359.44;4971615;28;20202;-71
2023/12/29 05:05:49;;;;;;;4.70;1.50;;;;;;;18.48;57.94;100359.84;4955814;28;20205;-70
2023/12/29 05:08:15;;;;;;;2.77;1.73;;;;;;;18.47;57.95;100357.38;4941952;28;20206;-70
2023/12/29 05:10:40;;;;;;;2.77;1.77;;;;;;;18.49;57.79;100344.34;4952882;28;20269;-71
2023/12/29 05:13:06;;;;;;;2.43;1.67;;;;;;;18.50;58.12;100348.00;4972073;28;20245;-70
2023/12/29 05:15:31;;;;;;;3.03;1.90;;;;;;;18.48;57.79;100339.00;4937034;28;20202;-71
2023/12/29 05:17:57;;;;;;;2.87;1.60;;;;;;;18.49;57.98;100335.75;4937232;28;20202;-70
2023/12/29 05:20:22;;;;;;;3.67;1.50;;;;;;;18.47;57.96;100329.59;4967628;28;20694;-71
2023/12/29 05:22:47;;;;;;;2.90;1.60;;;;;;;18.48;57.52;100325.53;4972491;28;20205;-70
2023/12/29 05:25:13;;;;;;;2.70;1.33;;;;;;;18.49;57.84;100321.47;4969172;28;20260;-71
2023/12/29 05:27:38;;;;;;;2.63;1.67;;;;;;;18.48;57.70;100319.81;4972510;28;20216;-70
2023/12/29 05:30:04;;;;;;;2.13;1.23;;;;;;;18.49;57.89;100327.19;4971578;28;20209;-70
2023/12/29 05:32:30;;;;;;;2.33;1.40;;;;;;;18.49;57.58;100327.19;4986782;28;20637;-71
2023/12/29 05:34:55;;;;;;;4.30;1.80;;;;;;;18.49;57.68;100335.75;4971945;28;20460;-71
2023/12/29 05:37:21;;;;;;;2.60;2.00;;;;;;;18.50;57.62;100328.84;4969436;28;20264;-71
2023/12/29 05:39:46;;;;;;;4.10;1.63;;;;;;;18.49;57.69;100317.78;4959913;28;20232;-71
2023/12/29 05:42:11;;;;;;;2.63;1.60;;;;;;;18.50;57.97;100323.13;4974259;28;20217;-71
2023/12/29 05:44:37;;;;;;;3.43;1.83;;;;;;;18.50;57.60;100328.00;4975461;28;20214;-70
2023/12/29 05:47:03;;;;;;;2.87;1.50;;;;;;;18.49;57.73;100327.19;4958147;28;20221;-71
2023/12/29 05:49:29;;;;;;;2.67;1.67;;;;;;;18.51;57.63;100330.47;4957389;28;20206;-71
2023/12/29 05:51:55;;;;;;;2.80;1.50;;;;;;;18.50;57.96;100320.25;4973642;28;20493;-71
2023/12/29 05:54:20;;;;;;;2.33;1.20;;;;;;;18.49;57.38;100318.63;4979399;28;20198;-72
2023/12/29 05:56:46;;;;;;;2.53;1.60;;;;;;;18.50;58.02;100317.41;4975446;28;20193;-71
2023/12/29 05:59:11;;;;;;;3.27;1.60;;;;;;;18.51;57.72;100321.09;4977206;28;20217;-71
2023/12/29 06:01:37;;;;;;;3.30;1.87;;;;;;;18.49;57.63;100318.63;4975167;28;20193;-70
2023/12/29 06:04:03;;;;;;;3.57;1.30;;;;;;;18.51;57.47;100319.03;4982236;28;20202;-71
2023/12/29 06:06:28;;;;;;;2.40;1.20;;;;;;;18.50;57.69;100325.97;4974590;28;20206;-70
2023/12/29 06:08:54;;;;;;;2.50;1.37;;;;;;;18.50;57.77;100325.97;4982518;28;20451;-70
2023/12/29 06:11:20;;;;;;;3.10;1.80;;;;;;;18.51;57.86;100324.75;4978595;28;20251;-71
2023/12/29 06:13:46;;;;;;;2.77;1.47;;;;;;;18.51;57.45;100323.97;4965436;28;20200;-71
2023/12/29 06:16:17;;;;;;;2.17;1.50;;;;;;;18.50;57.67;100333.72;4972130;28;20449;-71
2023/12/29 06:18:43;;;;;;;3.03;1.60;;;;;;;18.51;57.83;100321.91;4961700;28;20209;-70
2023/12/29 06:21:08;;;;;;;2.20;1.30;;;;;;;18.52;57.67;100322.75;4941701;28;20564;-70
2023/12/29 06:23:34;;;;;;;4.73;1.73;;;;;;;18.52;57.59;100317.84;4980556;28;20205;-70
2023/12/29 06:25:59;;;;;;;3.13;1.93;;;;;;;18.52;57.92;100329.28;4975741;28;20226;-71
2023/12/29 06:28:25;;;;;;;3.00;1.70;;;;;;;18.52;57.74;100331.31;4980517;28;20209;-72
2023/12/29 06:30:50;;;;;;;1.90;1.30;;;;;;;18.54;58.13;100323.19;4972677;28;20233;-71
2023/12/29 06:33:16;;;;;;;2.70;1.43;;;;;;;18.50;57.81;100319.41;4979575;28;20208;-71
2023/12/29 06:35:42;;;;;;;2.53;1.50;;;;;;;18.51;57.58;100324.75;4991033;28;20245;-70
2023/12/29 06:38:07;;;;;;;2.47;1.20;;;;;;;18.52;57.86;100317.84;4980023;28;20205;-71
2023/12/29 06:40:32;;;;;;;2.47;1.67;;;;;;;18.52;57.96;100319.88;4946901;28;20190;-71
2023/12/29 06:42:58;;;;;;;2.30;1.40;;;;;;;18.52;57.67;100314.97;4961328;28;20213;-72
2023/12/29 06:45:23;;;;;;;2.10;1.30;;;;;;;18.52;57.75;100309.25;4992196;28;20233;-71
2023/12/29 06:47:49;;;;;;;2.27;1.30;;;;;;;18.51;57.74;100319.03;4978992;28;20760;-71
2023/12/29 06:50:14;;;;;;;2.40;1.30;;;;;;;18.50;57.83;100323.13;4995091;28;20205;-71
2023/12/29 06:52:40;;;;;;;2.60;1.50;;;;;;;18.51;57.82;100312.53;4961781;28;20201;-71
2023/12/29 06:55:06;;;;;;;2.30;1.47;;;;;;;18.50;57.59;100303.09;4976063;28;20710;-72
2023/12/29 06:57:32;;;;;;;2.10;1.27;;;;;;;18.51;57.50;100304.75;4965141;28;20206;-71
2023/12/29 06:59:57;;;;;;;2.40;1.23;;;;;;;18.51;57.80;100306.81;4981294;28;20455;-72
2023/12/29 07:02:23;;;;;;;2.80;1.60;;;;;;;18.51;57.47;100319.03;4980151;28;20202;-71
2023/12/29 07:04:48;;;;;;;2.50;1.40;;;;;;;18.51;57.53;100316.19;4979982;28;20271;-71
2023/12/29 07:07:14;;;;;;;2.83;1.57;;;;;;;18.52;57.80;100312.13;4979390;28;20205;-71
2023/12/29 07:09:42;;;;;;;1.80;1.10;;;;;;;18.53;58.06;100319.50;4964730;28;20208;-71
2023/12/29 07:12:08;;;;;;;2.40;1.27;;;;;;;18.52;57.75;100322.75;4980575;28;20674;-71
2023/12/29 07:14:35;;;;;;;1.73;1.10;;;;;;;18.53;57.69;100310.94;4963512;28;20467;-72
2023/12/29 07:17:00;;;;;;;2.20;1.53;;;;;;;18.53;57.98;100324.38;4962874;28;20213;-71
2023/12/29 07:19:27;;;;;;;2.17;1.20;;;;;;;18.54;57.82;100323.19;4976568;28;20884;-71
2023/12/29 07:21:52;;;;;;;2.77;1.60;;;;;;;18.52;57.72;100320.69;4977669;28;20657;-71
2023/12/29 07:24:18;;;;;;;2.90;1.40;;;;;;;18.55;57.72;100324.81;4979210;28;20458;-70
2023/12/29 07:26:43;;;;;;;2.20;1.40;;;;;;;18.54;57.87;100324.00;4980294;28;20220;-71
2023/12/29 07:29:09;;;;;;;2.60;1.50;;;;;;;18.52;57.79;100320.69;4979833;28;20221;-72
2023/12/29 07:31:38;;;;;;;2.27;1.30;;;;;;;18.51;58.17;100319.03;4974785;28;20213;-71
2023/12/29 07:34:04;;;;;;;2.67;1.50;;;;;;;18.52;58.01;100329.28;4962390;28;20217;-71
2023/12/29 07:36:29;;;;;;;2.53;1.30;;;;;;;18.51;57.67;100327.63;4975468;28;20472;-72
2023/12/29 07:38:54;;;;;;;2.23;1.10;;;;;;;18.57;57.73;100320.38;4978713;28;20209;-72
2023/12/29 07:41:20;;;;;;;1.90;1.20;;;;;;;18.54;57.95;100324.00;4960389;28;20202;-71
2023/12/29 07:43:45;;;;;;;2.03;1.20;;;;;;;18.60;57.85;100313.06;4981989;28;20198;-72
2023/12/29 07:46:11;;;;;;;2.53;1.13;;;;;;;18.56;58.08;100310.16;4979108;28;20206;-71
2023/12/29 07:48:36;;;;;;;2.27;1.30;;;;;;;18.56;57.61;100313.00;4976607;28;20578;-72
2023/12/29 07:51:04;;;;;;;3.43;1.60;;;;;;;18.55;57.33;100313.38;4978306;28;20298;-73
2023/12/29 07:53:30;;;;;;;2.17;1.23;;;;;;;18.55;57.84;100319.09;4976043;28;20252;-71
2023/12/29 07:55:55;;;;;;;4.00;1.30;;;;;;;18.56;57.68;100326.50;4979283;28;20445;-71
2023/12/29 07:58:21;;;;;;;3.00;1.37;;;;;;;18.56;58.14;100332.22;4979137;28;20268;-71
2023/12/29 08:00:46;;;;;;;4.20;1.57;;;;;;;18.54;57.57;100335.44;4971827;28;20194;-72
2023/12/29 08:03:11;;;;;;;1.97;1.30;;;;;;;18.57;57.61;100328.94;4975446;28;20736;-71
2023/12/29 08:05:37;;;;;;;2.30;1.30;;;;;;;18.55;58.16;100337.09;4963475;28;20650;-71
2023/12/29 08:08:02;;;;;;;2.50;1.50;;;;;;;18.55;57.52;100339.97;4964392;28;20197;-71
2023/12/29 08:10:28;;;;;;;2.43;1.30;;;;;;;18.56;57.69;100343.66;4975221;28;20222;-71
2023/12/29 08:12:54;;;;;;;2.47;1.43;;;;;;;18.53;57.66;100336.66;4968064;28;20206;-70
2023/12/29 08:15:19;;;;;;;2.20;1.40;;;;;;;18.56;57.70;100343.66;4961263;28;20209;-71
2023/12/29 08:17:45;;;;;;;2.00;1.30;;;;;;;18.56;57.59;100355.09;4995817;28;20461;-71
2023/12/29 08:20:11;;;;;;;2.60;1.47;;;;;;;18.57;57.41;100351.03;4964587;28;20221;-71
2023/12/29 08:22:36;;;;;;;3.20;1.90;;;;;;;18.54;57.79;100352.59;4991740;28;20209;-71
2023/12/29 08:25:03;;;;;;;2.20;1.43;;;;;;;18.61;57.73;100357.63;4975420;28;20206;-71
2023/12/29 08:27:28;;;;;;;2.00;1.30;;;;;;;18.57;57.68;100357.53;4986209;28;20592;-71
2023/12/29 08:29:54;;;;;;;2.33;1.33;;;;;;;18.57;57.55;100356.75;4956515;28;20509;-71
2023/12/29 08:32:20;;;;;;;3.27;1.70;;;;;;;18.54;57.75;100364.03;4981556;28;20210;-70
2023/12/29 08:34:45;;;;;;;2.10;1.27;;;;;;;18.57;57.67;100365.31;4926874;28;20600;-71
2023/12/29 08:37:11;;;;;;;2.63;1.37;;;;;;;18.57;58.10;100368.97;4954211;28;20324;-70
2023/12/29 08:39:36;;;;;;;2.00;1.30;;;;;;;18.59;57.91;100366.59;4957939;28;20198;-71
2023/12/29 08:42:02;;;;;;;2.60;1.50;;;;;;;18.56;58.02;100367.34;4972277;28;20193;-72
2023/12/29 08:44:27;;;;;;;2.20;1.20;;;;;;;18.60;57.74;100373.13;4976895;28;20201;-70
2023/12/29 08:46:53;;;;;;;3.03;1.40;;;;;;;18.60;57.82;100376.81;4957349;28;20209;-71
2023/12/29 08:49:18;;;;;;;1.80;1.27;;;;;;;18.57;57.90;100368.97;4962354;28;20269;-70
2023/12/29 08:51:44;;;;;;;3.33;1.50;;;;;;;18.56;57.99;100373.06;4979095;28;20768;-71
2023/12/29 08:54:09;;;;;;;2.57;1.50;;;;;;;18.57;57.89;100371.03;4978430;28;20201;-72
2023/12/29 08:56:35;;;;;;;2.57;1.20;;;;;;;18.59;57.69;100371.47;4977477;28;20214;-71
2023/12/29 08:59:00;;;;;;;3.20;1.50;;;;;;;18.57;57.87;100368.97;4979340;28;20676;-71
2023/12/29 09:01:26;;;;;;;2.10;1.23;;;;;;;18.59;57.65;100372.31;4963147;28;20577;-71
2023/12/29 09:03:51;;;;;;;2.83;1.40;;;;;;;18.59;57.51;100368.59;4964617;28;21003;-72
2023/12/29 09:06:16;;;;;;;2.37;1.30;;;;;;;18.56;57.88;100364.47;4976893;28;20697;-71
2023/12/29 09:08:42;;;;;;;2.93;1.20;;;;;;;18.58;57.44;100367.81;4973143;28;20200;-71
2023/12/29 09:11:07;;;;;;;2.33;1.40;;;;;;;18.57;57.69;100363.25;4955682;28;20205;-71
2023/12/29 09:13:33;;;;;;;2.57;1.30;;;;;;;18.57;57.93;100374.69;4973081;28;20201;-71
2023/12/29 09:15:58;;;;;;;3.67;1.40;;;;;;;18.60;57.88;100373.94;4969558;28;20194;-71
2023/12/29 09:18:24;;;;;;;1.87;0.97;;;;;;;18.60;57.85;100384.56;4938455;28;20229;-71
2023/12/29 09:20:49;;;;;;;2.67;1.47;;;;;;;18.59;57.72;100383.75;4922911;28;20619;-71
2023/12/29 09:23:15;;;;;;;2.10;1.20;;;;;;;18.61;57.72;100375.59;4965685;28;20202;-72
2023/12/29 09:25:41;;;;;;;2.60;1.43;;;;;;;18.60;58.09;100376.81;4968555;28;20209;-71
2023/12/29 09:28:06;;;;;;;1.80;1.17;;;;;;;18.62;57.95;100385.81;4972929;28;20371;-72
2023/12/29 09:30:32;;;;;;;3.30;1.20;;;;;;;18.62;57.63;100377.25;4963551;28;20209;-72
2023/12/29 09:32:57;;;;;;;2.40;1.30;;;;;;;18.64;57.64;100377.72;4986092;28;20204;-71
2023/12/29 09:35:22;;;;;;;3.60;1.30;;;;;;;18.63;58.01;100376.06;4971621;28;20638;-72
2023/12/29 09:37:51;;;;;;;2.00;1.10;;;;;;;18.61;57.76;100381.31;4957885;28;20885;-71
2023/12/29 09:40:16;;;;;;;2.77;1.30;;;;;;;18.63;57.64;100383.81;4969430;28;20284;-71
2023/12/29 09:42:45;;;;;;;2.40;1.57;;;;;;;18.62;57.85;100377.25;4955458;28;20781;-71
2023/12/29 09:45:12;;;;;;;2.67;1.40;;;;;;;18.64;57.63;100379.72;4970920;28;20212;-71
2023/12/29 09:47:41;;;;;;;2.10;1.20;;;;;;;18.64;57.49;100374.00;4988164;28;20461;-71
2023/12/29 09:50:13;;;;;;;2.80;1.30;;;;;;;18.65;57.29;100379.34;4975637;28;20453;-70
2023/12/29 09:52:41;;;;;;;2.50;1.27;;;;;;;18.64;57.50;100380.56;4940673;28;20806;-71
2023/12/29 09:55:10;;;;;;;2.67;1.30;;;;;;;18.65;57.75;100376.50;4943436;28;20539;-71
2023/12/29 09:57:39;;;;;;;4.33;1.33;;;;;;;18.68;57.67;100386.34;4939057;28;20449;-72
2023/12/29 10:00:07;;;;;;;1.87;1.33;;;;;;;18.68;57.55;100375.75;4959764;28;20497;-70
2023/12/29 10:02:32;;;;;;;5.93;1.53;;;;;;;18.68;57.53;100375.75;4959013;28;20448;-71
2023/12/29 10:05:01;;;;;;;3.10;1.60;;;;;;;18.68;57.37;100374.91;4975218;28;20968;-71
2023/12/29 10:07:27;;;;;;;1.93;1.20;;;;;;;18.69;58.01;100370.84;4966142;28;20198;-71
2023/12/29 10:09:53;;;;;;;1.70;1.07;;;;;;;18.70;57.64;100372.47;4969400;28;20450;-71
2023/12/29 10:12:18;;;;;;;2.60;1.37;;;;;;;18.71;57.92;100362.72;4968319;28;20246;-71
2023/12/29 10:15:10;;;;;;;2.17;1.13;;;;;;;18.70;57.59;100359.03;4974933;28;21081;-71
2023/12/29 10:17:39;;;;;;;1.80;1.03;;;;;;;18.72;57.80;100364.38;4983435;28;20229;-71
2023/12/29 10:20:13;;;;;;;2.10;1.27;;;;;;;18.72;57.54;100353.75;4989130;28;20449;-71
2023/12/29 10:23:04;;;;;;;3.00;1.40;;;;;;;18.72;57.66;100341.50;4975127;28;20820;-72
2023/12/29 10:25:30;;;;;;;3.13;1.63;;;;;;;18.74;57.44;100345.63;4991368;28;20452;-71
2023/12/29 10:27:55;;;;;;;2.60;1.33;;;;;;;18.74;57.86;100354.22;4978666;28;20467;-71
2023/12/29 10:30:21;;;;;;;3.50;1.40;;;;;;;18.73;57.32;100338.25;4964505;28;20800;-71
2023/12/29 10:32:50;;;;;;;3.53;1.13;;;;;;;18.75;57.60;100353.00;4978854;28;20225;-71
2023/12/29 10:35:16;;;;;;;3.17;1.40;;;;;;;18.73;57.95;100338.25;4932359;28;20206;-71
2023/12/29 10:37:41;;;;;;;2.63;1.50;;;;;;;18.76;57.50;100343.19;4983181;28;21073;-71
2023/12/29 10:40:07;;;;;;;2.30;1.27;;;;;;;18.74;57.53;100339.91;4970727;28;20250;-72
2023/12/29 10:42:33;;;;;;;3.00;1.17;;;;;;;18.67;57.35;100339.75;4969630;28;20197;-72
2023/12/29 10:45:12;;;;;;;2.87;1.53;;;;;;;18.39;56.30;100333.53;4968727;28;20915;-72
2023/12/29 10:47:39;;;;;;;5.30;2.20;;;;;;;18.11;56.25;100326.41;4967803;28;20261;-72
2023/12/29 10:50:05;;;;;;;3.27;1.60;;;;;;;18.16;56.26;100315.47;4972548;28;20859;-73
2023/12/29 10:52:31;;;;;;;2.80;1.83;;;;;;;18.30;55.70;100314.91;4958099;28;20467;-73
2023/12/29 10:55:07;;;;;;;4.77;2.37;;;;;;;18.41;55.09;100308.25;4976256;28;20210;-73
2023/12/29 10:57:32;;;;;;;6.43;2.50;;;;;;;18.44;54.80;100313.22;4985257;28;20457;-73
2023/12/29 11:00:00;;;;;;;4.03;1.80;;;;;;;18.50;54.68;100305.13;4981502;28;20459;-73
2023/12/29 11:02:26;;;;;;;4.20;2.27;;;;;;;18.50;55.10;100305.97;4968247;28;20233;-73
2023/12/29 11:04:52;;;;;;;4.20;1.87;;;;;;;18.49;54.93;100303.47;4982778;28;20974;-72
2023/12/29 11:07:34;;;;;;;3.17;1.80;;;;;;;18.51;55.88;100299.03;4964624;28;20465;-73
2023/12/29 11:10:02;;;;;;;3.17;1.37;;;;;;;18.54;55.49;100298.28;4979131;28;20201;-73
2023/12/29 11:12:30;;;;;;;4.87;2.27;;;;;;;18.52;56.56;100292.09;5009213;28;20517;-72
2023/12/29 11:14:55;;;;;;;5.00;2.00;;;;;;;18.42;55.68;100306.22;4977076;28;20453;-74
2023/12/29 11:17:20;;;;;;;9.50;1.90;;;;;;;18.44;55.63;100303.78;4980501;28;20479;-74
2023/12/29 11:19:48;;;;;;;3.50;1.87;;;;;;;18.49;55.48;100303.47;4994022;28;20213;-72